sensor_id;sensor_type;location;lat;lon;timestamp;P1;durP1;ratioP1;P2;durP2;ratioP2
549;SDS011;20066;48.764;9.176;2023-03-31T00:01:08;7.80;;;2.50;;
549;SDS011;20066;48.764;9.176;2023-03-31T00:03:35;8.80;;;2.10;;
549;SDS011;20066;48.764;9.176;2023-03-31T00:06:10;11.10;;;1.90;;
549;SDS011;20066;48.764;9.176;2023-03-31T00:08:44;12.17;;;2.33;;
549;SDS011;20066;48.764;9.176;2023-03-31T00:11:17;8.33;;;2.23;;
549;SDS011;20066;48.764;9.176;2023-03-31T00:13:45;5.53;;;2.20;;
549;SDS011;20066;48.764;9.176;2023-03-31T00:16:14;5.70;;;2.10;;
549;SDS011;20066;48.764;9.176;2023-03-31T00:18:42;7.63;;;2.23;;
549;SDS011;20066;48.764;9.176;2023-03-31T00:21:13;7.00;;;2.43;;
549;SDS011;20066;48.764;9.176;2023-03-31T00:23:51;8.23;;;1.90;;
549;SDS011;20066;48.764;9.176;2023-03-31T00:26:20;6.97;;;1.60;;
549;SDS011;20066;48.764;9.176;2023-03-31T00:28:48;8.33;;;1.90;;
549;SDS011;20066;48.764;9.176;2023-03-31T00:31:18;4.50;;;1.90;;
549;SDS011;20066;48.764;9.176;2023-03-31T00:33:46;7.20;;;2.80;;
549;SDS011;20066;48.764;9.176;2023-03-31T00:36:14;4.80;;;1.90;;
549;SDS011;20066;48.764;9.176;2023-03-31T00:38:46;6.50;;;1.77;;
549;SDS011;20066;48.764;9.176;2023-03-31T00:41:14;9.43;;;2.80;;
549;SDS011;20066;48.764;9.176;2023-03-31T00:46:33;5.77;;;2.30;;
549;SDS011;20066;48.764;9.176;2023-03-31T00:49:06;5.50;;;2.20;;
549;SDS011;20066;48.764;9.176;2023-03-31T00:51:42;7.70;;;2.03;;
549;SDS011;20066;48.764;9.176;2023-03-31T00:54:11;10.00;;;2.07;;
549;SDS011;20066;48.764;9.176;2023-03-31T00:56:41;7.10;;;2.10;;
549;SDS011;20066;48.764;9.176;2023-03-31T00:59:13;5.73;;;2.23;;
549;SDS011;20066;48.764;9.176;2023-03-31T01:01:44;5.03;;;2.10;;
549;SDS011;20066;48.764;9.176;2023-03-31T01:04:15;10.40;;;2.70;;
549;SDS011;20066;48.764;9.176;2023-03-31T01:06:53;6.87;;;2.17;;
549;SDS011;20066;48.764;9.176;2023-03-31T01:09:27;8.90;;;2.33;;
549;SDS011;20066;48.764;9.176;2023-03-31T01:12:00;8.07;;;2.07;;
549;SDS011;20066;48.764;9.176;2023-03-31T01:14:29;3.50;;;2.00;;
549;SDS011;20066;48.764;9.176;2023-03-31T01:16:59;5.23;;;2.00;;
549;SDS011;20066;48.764;9.176;2023-03-31T01:19:31;14.00;;;1.90;;
549;SDS011;20066;48.764;9.176;2023-03-31T01:22:20;6.97;;;2.27;;
549;SDS011;20066;48.764;9.176;2023-03-31T01:28:21;7.43;;;2.03;;
549;SDS011;20066;48.764;9.176;2023-03-31T01:31:04;7.33;;;2.00;;
549;SDS011;20066;48.764;9.176;2023-03-31T01:37:10;12.00;;;3.07;;
549;SDS011;20066;48.764;9.176;2023-03-31T01:39:59;4.80;;;2.10;;
549;SDS011;20066;48.764;9.176;2023-03-31T01:42:50;12.63;;;2.50;;
549;SDS011;20066;48.764;9.176;2023-03-31T01:45:25;10.57;;;3.23;;
549;SDS011;20066;48.764;9.176;2023-03-31T01:48:00;7.17;;;2.00;;
549;SDS011;20066;48.764;9.176;2023-03-31T01:50:34;5.47;;;2.23;;
549;SDS011;20066;48.764;9.176;2023-03-31T01:53:09;6.47;;;2.07;;
549;SDS011;20066;48.764;9.176;2023-03-31T01:55:49;8.70;;;2.27;;
549;SDS011;20066;48.764;9.176;2023-03-31T01:58:25;6.20;;;1.90;;
549;SDS011;20066;48.764;9.176;2023-03-31T02:00:58;6.67;;;2.13;;
549;SDS011;20066;48.764;9.176;2023-03-31T02:03:29;9.80;;;1.97;;
549;SDS011;20066;48.764;9.176;2023-03-31T02:06:03;9.87;;;2.50;;
549;SDS011;20066;48.764;9.176;2023-03-31T02:08:39;9.10;;;3.03;;
549;SDS011;20066;48.764;9.176;2023-03-31T02:11:11;7.77;;;1.97;;
549;SDS011;20066;48.764;9.176;2023-03-31T02:13:40;8.17;;;2.10;;
549;SDS011;20066;48.764;9.176;2023-03-31T02:16:12;6.80;;;1.80;;
549;SDS011;20066;48.764;9.176;2023-03-31T02:18:46;7.20;;;2.00;;
549;SDS011;20066;48.764;9.176;2023-03-31T02:21:15;8.80;;;1.80;;
549;SDS011;20066;48.764;9.176;2023-03-31T02:23:43;10.60;;;1.90;;
549;SDS011;20066;48.764;9.176;2023-03-31T02:26:16;6.47;;;1.73;;
549;SDS011;20066;48.764;9.176;2023-03-31T02:28:50;6.60;;;2.00;;
549;SDS011;20066;48.764;9.176;2023-03-31T02:31:20;10.50;;;2.40;;
549;SDS011;20066;48.764;9.176;2023-03-31T02:33:54;14.07;;;2.40;;
549;SDS011;20066;48.764;9.176;2023-03-31T02:36:22;11.27;;;2.03;;
549;SDS011;20066;48.764;9.176;2023-03-31T02:38:51;9.40;;;2.33;;
549;SDS011;20066;48.764;9.176;2023-03-31T02:41:25;7.20;;;2.63;;
549;SDS011;20066;48.764;9.176;2023-03-31T02:43:52;10.53;;;2.93;;
549;SDS011;20066;48.764;9.176;2023-03-31T02:46:20;9.63;;;2.43;;
549;SDS011;20066;48.764;9.176;2023-03-31T02:48:49;3.70;;;1.70;;
549;SDS011;20066;48.764;9.176;2023-03-31T02:51:27;7.60;;;2.50;;
549;SDS011;20066;48.764;9.176;2023-03-31T02:54:09;4.63;;;2.20;;
549;SDS011;20066;48.764;9.176;2023-03-31T02:56:53;4.97;;;2.30;;
549;SDS011;20066;48.764;9.176;2023-03-31T02:59:33;8.50;;;2.40;;
549;SDS011;20066;48.764;9.176;2023-03-31T03:02:13;9.13;;;2.13;;
549;SDS011;20066;48.764;9.176;2023-03-31T03:04:54;10.40;;;2.43;;
549;SDS011;20066;48.764;9.176;2023-03-31T03:07:35;12.90;;;3.30;;
549;SDS011;20066;48.764;9.176;2023-03-31T03:10:13;6.60;;;2.60;;
549;SDS011;20066;48.764;9.176;2023-03-31T03:12:50;8.93;;;2.43;;
549;SDS011;20066;48.764;9.176;2023-03-31T03:15:24;6.13;;;2.37;;
549;SDS011;20066;48.764;9.176;2023-03-31T03:17:54;5.17;;;2.77;;
549;SDS011;20066;48.764;9.176;2023-03-31T03:20:24;10.33;;;3.20;;
549;SDS011;20066;48.764;9.176;2023-03-31T03:22:52;7.63;;;2.57;;
549;SDS011;20066;48.764;9.176;2023-03-31T03:25:19;7.80;;;2.43;;
549;SDS011;20066;48.764;9.176;2023-03-31T03:27:48;8.03;;;3.13;;
549;SDS011;20066;48.764;9.176;2023-03-31T03:30:18;8.43;;;2.70;;
549;SDS011;20066;48.764;9.176;2023-03-31T03:32:46;8.10;;;2.40;;
549;SDS011;20066;48.764;9.176;2023-03-31T03:35:15;7.90;;;2.20;;
549;SDS011;20066;48.764;9.176;2023-03-31T03:37:43;6.70;;;2.40;;
549;SDS011;20066;48.764;9.176;2023-03-31T03:40:14;5.00;;;2.20;;
549;SDS011;20066;48.764;9.176;2023-03-31T03:42:42;13.60;;;2.90;;
549;SDS011;20066;48.764;9.176;2023-03-31T03:45:11;6.87;;;2.83;;
549;SDS011;20066;48.764;9.176;2023-03-31T03:47:38;10.70;;;2.50;;
549;SDS011;20066;48.764;9.176;2023-03-31T03:50:07;8.93;;;2.50;;
549;SDS011;20066;48.764;9.176;2023-03-31T03:55:18;9.67;;;3.07;;
549;SDS011;20066;48.764;9.176;2023-03-31T03:57:46;9.37;;;2.73;;
549;SDS011;20066;48.764;9.176;2023-03-31T04:00:15;14.70;;;3.47;;
549;SDS011;20066;48.764;9.176;2023-03-31T04:02:43;11.60;;;3.20;;
549;SDS011;20066;48.764;9.176;2023-03-31T04:05:11;13.15;;;2.75;;
549;SDS011;20066;48.764;9.176;2023-03-31T04:07:39;7.30;;;2.63;;
549;SDS011;20066;48.764;9.176;2023-03-31T04:10:07;4.77;;;2.07;;
549;SDS011;20066;48.764;9.176;2023-03-31T04:12:35;14.17;;;3.30;;
549;SDS011;20066;48.764;9.176;2023-03-31T04:15:03;9.10;;;2.80;;
549;SDS011;20066;48.764;9.176;2023-03-31T04:17:33;12.18;;;3.70;;
549;SDS011;20066;48.764;9.176;2023-03-31T04:20:03;7.65;;;2.95;;
549;SDS011;20066;48.764;9.176;2023-03-31T04:22:35;10.73;;;3.08;;
549;SDS011;20066;48.764;9.176;2023-03-31T04:25:07;7.05;;;2.90;;
549;SDS011;20066;48.764;9.176;2023-03-31T04:27:40;11.20;;;3.85;;
549;SDS011;20066;48.764;9.176;2023-03-31T04:30:12;10.93;;;3.27;;
549;SDS011;20066;48.764;9.176;2023-03-31T04:32:50;9.18;;;3.20;;
549;SDS011;20066;48.764;9.176;2023-03-31T04:35:33;9.77;;;3.55;;
549;SDS011;20066;48.764;9.176;2023-03-31T04:38:14;9.63;;;3.08;;
549;SDS011;20066;48.764;9.176;2023-03-31T04:40:44;8.63;;;3.38;;
549;SDS011;20066;48.764;9.176;2023-03-31T04:43:12;10.15;;;3.70;;
549;SDS011;20066;48.764;9.176;2023-03-31T04:45:40;7.30;;;3.53;;
549;SDS011;20066;48.764;9.176;2023-03-31T04:48:10;10.87;;;3.67;;
549;SDS011;20066;48.764;9.176;2023-03-31T04:50:38;13.50;;;3.97;;
549;SDS011;20066;48.764;9.176;2023-03-31T04:53:09;5.90;;;3.15;;
549;SDS011;20066;48.764;9.176;2023-03-31T04:55:37;7.43;;;3.57;;
549;SDS011;20066;48.764;9.176;2023-03-31T04:58:04;12.03;;;3.73;;
549;SDS011;20066;48.764;9.176;2023-03-31T05:00:32;13.10;;;4.00;;
549;SDS011;20066;48.764;9.176;2023-03-31T05:02:59;8.43;;;3.70;;
549;SDS011;20066;48.764;9.176;2023-03-31T05:05:29;12.73;;;4.20;;
549;SDS011;20066;48.764;9.176;2023-03-31T05:07:56;6.47;;;3.73;;
549;SDS011;20066;48.764;9.176;2023-03-31T05:10:24;11.37;;;3.60;;
549;SDS011;20066;48.764;9.176;2023-03-31T05:12:52;10.70;;;4.28;;
549;SDS011;20066;48.764;9.176;2023-03-31T05:15:20;12.50;;;3.80;;
549;SDS011;20066;48.764;9.176;2023-03-31T05:17:49;10.60;;;3.10;;
549;SDS011;20066;48.764;9.176;2023-03-31T05:20:18;9.30;;;4.03;;
549;SDS011;20066;48.764;9.176;2023-03-31T05:22:48;8.80;;;3.80;;
549;SDS011;20066;48.764;9.176;2023-03-31T05:25:29;11.67;;;4.63;;
549;SDS011;20066;48.764;9.176;2023-03-31T05:27:59;7.40;;;3.90;;
549;SDS011;20066;48.764;9.176;2023-03-31T05:30:27;9.73;;;4.73;;
549;SDS011;20066;48.764;9.176;2023-03-31T05:32:55;8.40;;;4.90;;
549;SDS011;20066;48.764;9.176;2023-03-31T05:35:33;11.90;;;4.00;;
549;SDS011;20066;48.764;9.176;2023-03-31T05:38:03;10.13;;;4.30;;
549;SDS011;20066;48.764;9.176;2023-03-31T05:40:30;16.00;;;4.80;;
549;SDS011;20066;48.764;9.176;2023-03-31T05:42:58;14.33;;;5.53;;
549;SDS011;20066;48.764;9.176;2023-03-31T05:45:26;13.77;;;4.80;;
549;SDS011;20066;48.764;9.176;2023-03-31T05:47:53;13.67;;;5.00;;
549;SDS011;20066;48.764;9.176;2023-03-31T05:50:21;17.93;;;5.00;;
549;SDS011;20066;48.764;9.176;2023-03-31T05:52:49;13.33;;;4.10;;
549;SDS011;20066;48.764;9.176;2023-03-31T05:55:18;10.90;;;4.73;;
549;SDS011;20066;48.764;9.176;2023-03-31T05:57:46;19.77;;;5.17;;
549;SDS011;20066;48.764;9.176;2023-03-31T06:00:14;20.17;;;5.00;;
549;SDS011;20066;48.764;9.176;2023-03-31T06:02:43;8.37;;;4.70;;
549;SDS011;20066;48.764;9.176;2023-03-31T06:05:11;9.20;;;4.17;;
549;SDS011;20066;48.764;9.176;2023-03-31T06:07:38;12.40;;;4.30;;
549;SDS011;20066;48.764;9.176;2023-03-31T06:10:06;9.93;;;4.80;;
549;SDS011;20066;48.764;9.176;2023-03-31T06:12:37;11.23;;;4.97;;
549;SDS011;20066;48.764;9.176;2023-03-31T06:15:05;11.40;;;4.47;;
549;SDS011;20066;48.764;9.176;2023-03-31T06:17:33;14.57;;;4.77;;
549;SDS011;20066;48.764;9.176;2023-03-31T06:20:04;11.53;;;4.43;;
549;SDS011;20066;48.764;9.176;2023-03-31T06:22:52;14.70;;;5.00;;
549;SDS011;20066;48.764;9.176;2023-03-31T06:25:19;10.90;;;4.67;;
549;SDS011;20066;48.764;9.176;2023-03-31T06:27:48;13.60;;;5.67;;
549;SDS011;20066;48.764;9.176;2023-03-31T06:30:16;21.13;;;6.20;;
549;SDS011;20066;48.764;9.176;2023-03-31T06:32:44;10.10;;;5.23;;
549;SDS011;20066;48.764;9.176;2023-03-31T06:35:12;9.90;;;4.97;;
549;SDS011;20066;48.764;9.176;2023-03-31T06:37:40;15.57;;;6.47;;
549;SDS011;20066;48.764;9.176;2023-03-31T06:40:08;10.43;;;5.13;;
549;SDS011;20066;48.764;9.176;2023-03-31T06:42:36;16.17;;;6.67;;
549;SDS011;20066;48.764;9.176;2023-03-31T06:45:05;14.73;;;6.50;;
549;SDS011;20066;48.764;9.176;2023-03-31T06:47:34;16.70;;;6.60;;
549;SDS011;20066;48.764;9.176;2023-03-31T06:50:03;18.53;;;5.83;;
549;SDS011;20066;48.764;9.176;2023-03-31T06:52:32;12.33;;;5.73;;
549;SDS011;20066;48.764;9.176;2023-03-31T06:55:00;12.00;;;5.07;;
549;SDS011;20066;48.764;9.176;2023-03-31T06:57:27;10.53;;;4.53;;
549;SDS011;20066;48.764;9.176;2023-03-31T06:59:58;15.00;;;5.37;;
549;SDS011;20066;48.764;9.176;2023-03-31T07:02:27;12.18;;;4.47;;
549;SDS011;20066;48.764;9.176;2023-03-31T07:04:56;8.75;;;4.43;;
549;SDS011;20066;48.764;9.176;2023-03-31T07:07:23;14.90;;;6.00;;
549;SDS011;20066;48.764;9.176;2023-03-31T07:09:51;10.57;;;4.97;;
549;SDS011;20066;48.764;9.176;2023-03-31T07:12:21;13.30;;;5.20;;
549;SDS011;20066;48.764;9.176;2023-03-31T07:14:49;19.25;;;4.30;;
549;SDS011;20066;48.764;9.176;2023-03-31T07:17:17;9.32;;;3.70;;
549;SDS011;20066;48.764;9.176;2023-03-31T07:19:46;9.35;;;3.92;;
549;SDS011;20066;48.764;9.176;2023-03-31T07:22:14;10.25;;;3.78;;
549;SDS011;20066;48.764;9.176;2023-03-31T07:24:41;5.05;;;3.00;;
549;SDS011;20066;48.764;9.176;2023-03-31T07:27:09;9.20;;;3.05;;
549;SDS011;20066;48.764;9.176;2023-03-31T07:29:37;12.07;;;3.45;;
549;SDS011;20066;48.764;9.176;2023-03-31T07:32:04;6.50;;;3.10;;
549;SDS011;20066;48.764;9.176;2023-03-31T07:34:32;7.35;;;3.17;;
549;SDS011;20066;48.764;9.176;2023-03-31T07:37:04;7.57;;;2.65;;
549;SDS011;20066;48.764;9.176;2023-03-31T07:39:32;7.68;;;2.78;;
549;SDS011;20066;48.764;9.176;2023-03-31T07:42:02;6.15;;;2.75;;
549;SDS011;20066;48.764;9.176;2023-03-31T07:44:31;5.00;;;2.55;;
549;SDS011;20066;48.764;9.176;2023-03-31T07:47:02;9.05;;;2.00;;
549;SDS011;20066;48.764;9.176;2023-03-31T07:49:31;6.43;;;2.00;;
549;SDS011;20066;48.764;9.176;2023-03-31T07:52:00;4.50;;;1.83;;
549;SDS011;20066;48.764;9.176;2023-03-31T07:54:29;3.60;;;1.80;;
549;SDS011;20066;48.764;9.176;2023-03-31T07:56:57;2.93;;;1.33;;
549;SDS011;20066;48.764;9.176;2023-03-31T07:59:27;3.30;;;1.43;;
549;SDS011;20066;48.764;9.176;2023-03-31T08:01:55;3.20;;;1.57;;
549;SDS011;20066;48.764;9.176;2023-03-31T08:04:23;2.67;;;1.20;;
549;SDS011;20066;48.764;9.176;2023-03-31T08:06:51;4.33;;;1.17;;
549;SDS011;20066;48.764;9.176;2023-03-31T08:09:19;2.80;;;0.93;;
549;SDS011;20066;48.764;9.176;2023-03-31T08:11:49;2.20;;;0.90;;
549;SDS011;20066;48.764;9.176;2023-03-31T08:14:17;3.83;;;1.20;;
549;SDS011;20066;48.764;9.176;2023-03-31T08:16:59;5.03;;;1.50;;
549;SDS011;20066;48.764;9.176;2023-03-31T08:19:27;2.90;;;0.90;;
549;SDS011;20066;48.764;9.176;2023-03-31T08:21:55;3.00;;;1.00;;
549;SDS011;20066;48.764;9.176;2023-03-31T08:24:22;4.20;;;1.03;;
549;SDS011;20066;48.764;9.176;2023-03-31T08:26:51;4.53;;;1.37;;
549;SDS011;20066;48.764;9.176;2023-03-31T08:29:19;4.13;;;1.17;;
549;SDS011;20066;48.764;9.176;2023-03-31T08:31:47;2.97;;;0.93;;
549;SDS011;20066;48.764;9.176;2023-03-31T08:34:15;2.90;;;1.00;;
549;SDS011;20066;48.764;9.176;2023-03-31T08:36:42;3.63;;;0.90;;
549;SDS011;20066;48.764;9.176;2023-03-31T08:39:10;4.07;;;1.00;;
549;SDS011;20066;48.764;9.176;2023-03-31T08:41:41;3.00;;;1.10;;
549;SDS011;20066;48.764;9.176;2023-03-31T08:44:21;5.23;;;1.37;;
549;SDS011;20066;48.764;9.176;2023-03-31T08:46:56;2.27;;;1.30;;
549;SDS011;20066;48.764;9.176;2023-03-31T08:49:26;3.53;;;1.60;;
549;SDS011;20066;48.764;9.176;2023-03-31T08:51:58;3.83;;;1.60;;
549;SDS011;20066;48.764;9.176;2023-03-31T08:54:32;3.77;;;1.27;;
549;SDS011;20066;48.764;9.176;2023-03-31T08:57:04;5.43;;;1.20;;
549;SDS011;20066;48.764;9.176;2023-03-31T08:59:42;7.20;;;1.10;;
549;SDS011;20066;48.764;9.176;2023-03-31T09:02:13;3.83;;;1.37;;
549;SDS011;20066;48.764;9.176;2023-03-31T09:07:51;1.90;;;0.90;;
549;SDS011;20066;48.764;9.176;2023-03-31T09:10:30;4.13;;;1.30;;
549;SDS011;20066;48.764;9.176;2023-03-31T09:13:09;5.03;;;1.30;;
549;SDS011;20066;48.764;9.176;2023-03-31T09:15:52;4.40;;;1.50;;
549;SDS011;20066;48.764;9.176;2023-03-31T09:18:26;7.03;;;1.63;;
549;SDS011;20066;48.764;9.176;2023-03-31T09:20:59;6.13;;;1.70;;
549;SDS011;20066;48.764;9.176;2023-03-31T09:23:34;2.87;;;1.30;;
549;SDS011;20066;48.764;9.176;2023-03-31T09:26:05;4.60;;;1.50;;
549;SDS011;20066;48.764;9.176;2023-03-31T09:28:44;3.47;;;1.10;;
549;SDS011;20066;48.764;9.176;2023-03-31T09:31:15;4.30;;;1.50;;
549;SDS011;20066;48.764;9.176;2023-03-31T09:33:46;2.63;;;1.23;;
549;SDS011;20066;48.764;9.176;2023-03-31T09:36:16;5.07;;;1.30;;
549;SDS011;20066;48.764;9.176;2023-03-31T09:38:45;3.63;;;1.40;;
549;SDS011;20066;48.764;9.176;2023-03-31T09:41:13;4.80;;;1.10;;
549;SDS011;20066;48.764;9.176;2023-03-31T09:43:42;3.97;;;1.30;;
549;SDS011;20066;48.764;9.176;2023-03-31T09:46:15;3.20;;;1.20;;
549;SDS011;20066;48.764;9.176;2023-03-31T09:48:51;4.10;;;1.40;;
549;SDS011;20066;48.764;9.176;2023-03-31T09:51:23;3.97;;;1.30;;
549;SDS011;20066;48.764;9.176;2023-03-31T09:59:16;3.17;;;1.10;;
549;SDS011;20066;48.764;9.176;2023-03-31T10:01:48;4.53;;;1.10;;
549;SDS011;20066;48.764;9.176;2023-03-31T10:04:19;2.40;;;1.00;;
549;SDS011;20066;48.764;9.176;2023-03-31T10:06:49;6.43;;;1.37;;
549;SDS011;20066;48.764;9.176;2023-03-31T10:09:18;5.17;;;1.40;;
549;SDS011;20066;48.764;9.176;2023-03-31T10:11:54;2.80;;;1.30;;
549;SDS011;20066;48.764;9.176;2023-03-31T10:14:25;3.33;;;1.03;;
549;SDS011;20066;48.764;9.176;2023-03-31T10:17:01;3.43;;;1.40;;
549;SDS011;20066;48.764;9.176;2023-03-31T10:19:31;3.67;;;1.10;;
549;SDS011;20066;48.764;9.176;2023-03-31T10:22:01;4.10;;;1.30;;
549;SDS011;20066;48.764;9.176;2023-03-31T10:24:38;5.20;;;1.50;;
549;SDS011;20066;48.764;9.176;2023-03-31T10:27:11;6.60;;;1.50;;
549;SDS011;20066;48.764;9.176;2023-03-31T10:29:45;5.73;;;1.30;;
549;SDS011;20066;48.764;9.176;2023-03-31T10:32:16;6.50;;;1.03;;
549;SDS011;20066;48.764;9.176;2023-03-31T10:34:48;4.00;;;1.43;;
549;SDS011;20066;48.764;9.176;2023-03-31T10:37:17;4.40;;;1.20;;
549;SDS011;20066;48.764;9.176;2023-03-31T10:39:55;6.70;;;1.30;;
549;SDS011;20066;48.764;9.176;2023-03-31T10:42:24;7.47;;;1.30;;
549;SDS011;20066;48.764;9.176;2023-03-31T10:45:08;5.07;;;1.27;;
549;SDS011;20066;48.764;9.176;2023-03-31T10:47:53;8.53;;;1.60;;
549;SDS011;20066;48.764;9.176;2023-03-31T10:53:10;4.97;;;1.70;;
549;SDS011;20066;48.764;9.176;2023-03-31T10:55:40;4.43;;;1.60;;
549;SDS011;20066;48.764;9.176;2023-03-31T10:58:19;6.30;;;1.87;;
549;SDS011;20066;48.764;9.176;2023-03-31T11:01:03;5.43;;;1.47;;
549;SDS011;20066;48.764;9.176;2023-03-31T11:03:46;3.10;;;1.10;;
549;SDS011;20066;48.764;9.176;2023-03-31T11:06:24;4.60;;;1.27;;
549;SDS011;20066;48.764;9.176;2023-03-31T11:09:00;4.10;;;1.20;;
549;SDS011;20066;48.764;9.176;2023-03-31T11:11:51;8.73;;;1.20;;
549;SDS011;20066;48.764;9.176;2023-03-31T11:14:33;5.00;;;1.40;;
549;SDS011;20066;48.764;9.176;2023-03-31T11:17:10;11.90;;;1.40;;
549;SDS011;20066;48.764;9.176;2023-03-31T11:19:49;3.30;;;0.83;;
549;SDS011;20066;48.764;9.176;2023-03-31T11:22:27;1.80;;;1.00;;
549;SDS011;20066;48.764;9.176;2023-03-31T11:25:07;3.93;;;1.10;;
549;SDS011;20066;48.764;9.176;2023-03-31T11:27:58;2.50;;;0.70;;
549;SDS011;20066;48.764;9.176;2023-03-31T11:30:44;7.50;;;1.00;;
549;SDS011;20066;48.764;9.176;2023-03-31T11:33:28;2.97;;;0.70;;
549;SDS011;20066;48.764;9.176;2023-03-31T11:36:14;5.22;;;0.68;;
549;SDS011;20066;48.764;9.176;2023-03-31T11:39:02;4.15;;;1.10;;
549;SDS011;20066;48.764;9.176;2023-03-31T11:41:43;2.97;;;0.60;;
549;SDS011;20066;48.764;9.176;2023-03-31T11:44:16;2.72;;;0.80;;
549;SDS011;20066;48.764;9.176;2023-03-31T11:49:32;1.30;;;0.70;;
549;SDS011;20066;48.764;9.176;2023-03-31T11:52:07;1.35;;;0.63;;
549;SDS011;20066;48.764;9.176;2023-03-31T11:54:41;2.00;;;0.75;;
549;SDS011;20066;48.764;9.176;2023-03-31T11:57:18;2.85;;;0.70;;
549;SDS011;20066;48.764;9.176;2023-03-31T11:59:52;1.80;;;0.85;;
549;SDS011;20066;48.764;9.176;2023-03-31T12:02:24;3.42;;;0.82;;
549;SDS011;20066;48.764;9.176;2023-03-31T12:04:58;4.40;;;1.20;;
549;SDS011;20066;48.764;9.176;2023-03-31T12:07:29;5.97;;;1.20;;
549;SDS011;20066;48.764;9.176;2023-03-31T12:09:59;3.23;;;0.90;;
549;SDS011;20066;48.764;9.176;2023-03-31T12:12:32;1.70;;;0.50;;
549;SDS011;20066;48.764;9.176;2023-03-31T12:15:07;1.30;;;0.50;;
549;SDS011;20066;48.764;9.176;2023-03-31T12:17:43;1.67;;;0.53;;
549;SDS011;20066;48.764;9.176;2023-03-31T12:20:17;12.67;;;2.40;;
549;SDS011;20066;48.764;9.176;2023-03-31T12:22:52;8.13;;;1.30;;
549;SDS011;20066;48.764;9.176;2023-03-31T12:25:22;4.93;;;1.50;;
549;SDS011;20066;48.764;9.176;2023-03-31T12:27:52;3.97;;;1.00;;
549;SDS011;20066;48.764;9.176;2023-03-31T12:30:21;4.53;;;1.50;;
549;SDS011;20066;48.764;9.176;2023-03-31T12:32:57;8.93;;;1.90;;
549;SDS011;20066;48.764;9.176;2023-03-31T12:35:28;1.53;;;0.50;;
549;SDS011;20066;48.764;9.176;2023-03-31T12:38:07;0.93;;;0.63;;
549;SDS011;20066;48.764;9.176;2023-03-31T12:40:44;1.80;;;0.60;;
549;SDS011;20066;48.764;9.176;2023-03-31T12:43:35;1.03;;;0.50;;
549;SDS011;20066;48.764;9.176;2023-03-31T12:46:23;1.73;;;0.60;;
549;SDS011;20066;48.764;9.176;2023-03-31T12:49:09;1.07;;;0.43;;
549;SDS011;20066;48.764;9.176;2023-03-31T12:51:56;6.93;;;0.60;;
549;SDS011;20066;48.764;9.176;2023-03-31T12:54:34;5.07;;;0.80;;
549;SDS011;20066;48.764;9.176;2023-03-31T12:57:24;2.00;;;0.63;;
549;SDS011;20066;48.764;9.176;2023-03-31T13:00:13;4.20;;;0.50;;
549;SDS011;20066;48.764;9.176;2023-03-31T13:02:46;3.73;;;0.70;;
549;SDS011;20066;48.764;9.176;2023-03-31T13:11:14;6.60;;;0.90;;
549;SDS011;20066;48.764;9.176;2023-03-31T13:13:44;9.97;;;1.00;;
549;SDS011;20066;48.764;9.176;2023-03-31T13:16:26;2.30;;;1.20;;
549;SDS011;20066;48.764;9.176;2023-03-31T13:18:54;7.47;;;1.37;;
549;SDS011;20066;48.764;9.176;2023-03-31T13:21:23;3.50;;;1.40;;
549;SDS011;20066;48.764;9.176;2023-03-31T13:23:51;8.60;;;1.37;;
549;SDS011;20066;48.764;9.176;2023-03-31T13:29:08;3.20;;;0.80;;
549;SDS011;20066;48.764;9.176;2023-03-31T13:34:54;5.17;;;1.20;;
549;SDS011;20066;48.764;9.176;2023-03-31T13:37:35;4.50;;;1.00;;
549;SDS011;20066;48.764;9.176;2023-03-31T13:40:16;2.27;;;1.00;;
549;SDS011;20066;48.764;9.176;2023-03-31T13:43:14;2.50;;;0.60;;
549;SDS011;20066;48.764;9.176;2023-03-31T13:46:05;19.40;;;1.77;;
549;SDS011;20066;48.764;9.176;2023-03-31T13:48:49;4.60;;;0.70;;
549;SDS011;20066;48.764;9.176;2023-03-31T13:51:28;1.00;;;0.43;;
549;SDS011;20066;48.764;9.176;2023-03-31T13:54:07;3.10;;;0.95;;
549;SDS011;20066;48.764;9.176;2023-03-31T14:00:02;1.98;;;0.40;;
549;SDS011;20066;48.764;9.176;2023-03-31T14:02:49;3.35;;;1.35;;
549;SDS011;20066;48.764;9.176;2023-03-31T14:05:30;2.70;;;0.98;;
549;SDS011;20066;48.764;9.176;2023-03-31T14:08:01;6.75;;;2.08;;
549;SDS011;20066;48.764;9.176;2023-03-31T14:10:32;2.17;;;0.63;;
549;SDS011;20066;48.764;9.176;2023-03-31T14:13:05;3.13;;;1.30;;
549;SDS011;20066;48.764;9.176;2023-03-31T14:15:35;5.22;;;1.75;;
549;SDS011;20066;48.764;9.176;2023-03-31T14:18:06;3.27;;;1.20;;
549;SDS011;20066;48.764;9.176;2023-03-31T14:20:39;1.47;;;0.60;;
549;SDS011;20066;48.764;9.176;2023-03-31T14:23:16;1.70;;;0.73;;
549;SDS011;20066;48.764;9.176;2023-03-31T14:25:57;1.67;;;0.50;;
549;SDS011;20066;48.764;9.176;2023-03-31T14:28:42;1.73;;;0.70;;
549;SDS011;20066;48.764;9.176;2023-03-31T14:31:29;2.30;;;0.80;;
549;SDS011;20066;48.764;9.176;2023-03-31T14:34:09;4.97;;;0.90;;
549;SDS011;20066;48.764;9.176;2023-03-31T14:36:46;1.90;;;0.70;;
549;SDS011;20066;48.764;9.176;2023-03-31T14:39:24;3.20;;;1.27;;
549;SDS011;20066;48.764;9.176;2023-03-31T14:41:55;2.00;;;1.03;;
549;SDS011;20066;48.764;9.176;2023-03-31T14:44:26;2.00;;;1.10;;
549;SDS011;20066;48.764;9.176;2023-03-31T14:46:57;4.33;;;1.60;;
549;SDS011;20066;48.764;9.176;2023-03-31T14:49:35;1.67;;;1.10;;
549;SDS011;20066;48.764;9.176;2023-03-31T14:52:11;2.40;;;0.90;;
549;SDS011;20066;48.764;9.176;2023-03-31T14:54:42;2.47;;;1.37;;
549;SDS011;20066;48.764;9.176;2023-03-31T14:57:13;3.33;;;1.37;;
549;SDS011;20066;48.764;9.176;2023-03-31T14:59:46;4.03;;;1.60;;
549;SDS011;20066;48.764;9.176;2023-03-31T15:02:21;1.67;;;0.87;;
549;SDS011;20066;48.764;9.176;2023-03-31T15:04:58;1.40;;;0.70;;
549;SDS011;20066;48.764;9.176;2023-03-31T15:07:29;1.93;;;0.80;;
549;SDS011;20066;48.764;9.176;2023-03-31T15:09:56;2.30;;;0.60;;
549;SDS011;20066;48.764;9.176;2023-03-31T15:12:24;1.40;;;0.60;;
549;SDS011;20066;48.764;9.176;2023-03-31T15:14:56;1.90;;;0.40;;
549;SDS011;20066;48.764;9.176;2023-03-31T15:17:31;1.47;;;0.50;;
549;SDS011;20066;48.764;9.176;2023-03-31T15:20:20;2.77;;;0.60;;
549;SDS011;20066;48.764;9.176;2023-03-31T15:22:53;3.43;;;0.80;;
549;SDS011;20066;48.764;9.176;2023-03-31T15:25:23;2.40;;;0.53;;
549;SDS011;20066;48.764;9.176;2023-03-31T15:27:52;2.07;;;0.90;;
549;SDS011;20066;48.764;9.176;2023-03-31T15:30:24;2.23;;;1.10;;
549;SDS011;20066;48.764;9.176;2023-03-31T15:32:56;3.53;;;0.77;;
549;SDS011;20066;48.764;9.176;2023-03-31T15:35:43;1.27;;;0.60;;
549;SDS011;20066;48.764;9.176;2023-03-31T15:38:12;0.97;;;0.50;;
549;SDS011;20066;48.764;9.176;2023-03-31T15:40:43;2.00;;;0.70;;
549;SDS011;20066;48.764;9.176;2023-03-31T15:43:16;2.67;;;0.77;;
549;SDS011;20066;48.764;9.176;2023-03-31T15:45:51;1.73;;;0.60;;
549;SDS011;20066;48.764;9.176;2023-03-31T15:48:22;4.40;;;1.60;;
549;SDS011;20066;48.764;9.176;2023-03-31T15:50:58;3.60;;;1.00;;
549;SDS011;20066;48.764;9.176;2023-03-31T15:53:28;4.23;;;1.00;;
549;SDS011;20066;48.764;9.176;2023-03-31T15:56:01;2.80;;;1.27;;
549;SDS011;20066;48.764;9.176;2023-03-31T15:58:46;5.90;;;1.20;;
549;SDS011;20066;48.764;9.176;2023-03-31T16:01:20;4.80;;;1.37;;
549;SDS011;20066;48.764;9.176;2023-03-31T16:03:54;4.60;;;1.57;;
549;SDS011;20066;48.764;9.176;2023-03-31T16:06:33;3.53;;;1.40;;
549;SDS011;20066;48.764;9.176;2023-03-31T16:09:06;4.13;;;1.43;;
549;SDS011;20066;48.764;9.176;2023-03-31T16:11:37;2.63;;;1.17;;
549;SDS011;20066;48.764;9.176;2023-03-31T16:14:10;4.93;;;1.67;;
549;SDS011;20066;48.764;9.176;2023-03-31T16:16:48;4.80;;;1.63;;
549;SDS011;20066;48.764;9.176;2023-03-31T16:19:19;2.33;;;0.83;;
549;SDS011;20066;48.764;9.176;2023-03-31T16:21:52;3.70;;;1.10;;
549;SDS011;20066;48.764;9.176;2023-03-31T16:24:27;2.90;;;0.90;;
549;SDS011;20066;48.764;9.176;2023-03-31T16:26:58;5.03;;;1.10;;
549;SDS011;20066;48.764;9.176;2023-03-31T16:29:36;2.77;;;1.13;;